Time;durP1;ratioP1;P1;durP2;ratioP2;P2;SDS_P1;SDS_P2;PMS_P1;PMS_P2;Temp;Humidity;BMP_temperature;BMP_pressure;BME280_temperature;BME280_humidity;BME280_pressure;Samples;Min_cycle;Max_cycle;Signal;HPM_P1;HPM_P2
2022/09/20 00:00:19;;;;;;;0.88;0.88;;;4.90;99.90;;;;;;4968986;28;20031;-75
2022/09/20 00:02:45;;;;;;;0.50;0.50;;;4.90;99.90;;;;;;4953988;29;20200;-75
2022/09/20 00:05:10;;;;;;;0.52;0.47;;;4.80;99.90;;;;;;4968544;28;20082;-73
2022/09/20 00:07:36;;;;;;;0.30;0.30;;;4.80;99.90;;;;;;4953445;28;20547;-75
2022/09/20 00:10:02;;;;;;;1.10;0.73;;;4.90;99.90;;;;;;4953979;29;20105;-76
2022/09/20 00:12:27;;;;;;;0.90;0.90;;;4.70;99.90;;;;;;4954996;28;20089;-75
2022/09/20 00:14:53;;;;;;;0.30;0.30;;;4.70;99.90;;;;;;4955182;29;20034;-76
2022/09/20 00:17:18;;;;;;;0.20;0.20;;;4.80;99.90;;;;;;4955264;28;20094;-74
2022/09/20 00:19:44;;;;;;;6.75;0.70;;;4.70;99.90;;;;;;4954116;28;20597;-75
2022/09/20 00:22:10;;;;;;;0.35;0.32;;;4.70;99.90;;;;;;4954922;29;20030;-74
2022/09/20 00:24:36;;;;;;;0.40;0.40;;;4.70;99.90;;;;;;4955103;29;20071;-76
2022/09/20 00:27:02;;;;;;;0.38;0.30;;;4.80;99.90;;;;;;4955055;28;20467;-75
2022/09/20 00:29:28;;;;;;;1.85;1.75;;;4.60;99.90;;;;;;4970195;28;20498;-75
2022/09/20 00:31:53;;;;;;;0.25;0.25;;;4.60;99.90;;;;;;4955416;29;20027;-74
2022/09/20 00:37:03;;;;;;;0.30;0.30;;;4.40;99.90;;;;;;4959381;29;20111;-75
2022/09/20 00:39:30;;;;;;;0.35;0.32;;;4.40;99.90;;;;;;4959775;29;20303;-74
2022/09/20 00:41:55;;;;;;;0.22;0.22;;;4.60;99.90;;;;;;4974656;28;20023;-76
2022/09/20 00:44:42;;;;;;;7.97;0.47;;;4.70;99.90;;;;;;4975114;28;20035;-73
2022/09/20 00:47:26;;;;;;;0.65;0.65;;;4.40;99.90;;;;;;4959864;28;20027;-76
2022/09/20 00:50:00;;;;;;;0.47;0.40;;;4.50;99.90;;;;;;4974049;28;20023;-76
2022/09/20 00:52:27;;;;;;;0.28;0.28;;;4.80;99.90;;;;;;4972239;28;20439;-73
2022/09/20 00:54:54;;;;;;;1.27;0.52;;;4.70;99.90;;;;;;4955540;28;20047;-73
2022/09/20 00:57:19;;;;;;;0.93;0.88;;;4.50;99.90;;;;;;4970108;28;20046;-74
2022/09/20 00:59:48;;;;;;;0.25;0.25;;;4.40;99.90;;;;;;4955258;29;20031;-76
2022/09/20 01:02:25;;;;;;;3.42;0.40;;;4.50;99.90;;;;;;4955371;28;20034;-73
2022/09/20 01:04:51;;;;;;;0.98;0.95;;;4.30;99.90;;;;;;4955699;28;20074;-74
2022/09/20 01:07:23;;;;;;;0.85;0.65;;;4.20;99.90;;;;;;4955697;29;20031;-73
2022/09/20 01:09:49;;;;;;;0.77;0.77;;;4.30;99.90;;;;;;4973231;28;20034;-74
2022/09/20 01:12:19;;;;;;;0.20;0.20;;;4.10;99.90;;;;;;4958486;28;20023;-75
2022/09/20 01:14:47;;;;;;;0.38;0.38;;;4.10;99.90;;;;;;4958606;29;20023;-75
2022/09/20 01:17:13;;;;;;;9.68;1.08;;;4.00;99.90;;;;;;4970627;28;20038;-76
2022/09/20 01:19:56;;;;;;;1.95;0.60;;;4.00;99.90;;;;;;4958272;28;20046;-74
2022/09/20 01:22:30;;;;;;;2.17;1.38;;;4.00;99.90;;;;;;4972390;28;20023;-75
2022/09/20 01:25:15;;;;;;;0.68;0.68;;;4.20;99.90;;;;;;4954201;28;20365;-73
2022/09/20 01:27:46;;;;;;;1.52;0.95;;;4.10;99.90;;;;;;4955396;28;20361;-73
2022/09/20 01:30:24;;;;;;;0.30;0.30;;;4.10;99.90;;;;;;4955268;29;20027;-74
2022/09/20 01:33:11;;;;;;;0.25;0.25;;;4.20;99.90;;;;;;4953964;28;20058;-73
2022/09/20 01:35:40;;;;;;;1.25;0.80;;;4.40;99.90;;;;;;4968006;28;20472;-73
2022/09/20 01:38:21;;;;;;;0.50;0.50;;;4.20;99.90;;;;;;4968128;28;20039;-73
2022/09/20 01:41:05;;;;;;;0.35;0.35;;;4.10;99.90;;;;;;4953355;28;20019;-75
2022/09/20 01:43:36;;;;;;;0.75;0.50;;;4.10;99.90;;;;;;4967799;28;20135;-73
2022/09/20 01:46:35;;;;;;;0.20;0.20;;;4.30;99.90;;;;;;4968713;28;20031;-73
2022/09/20 01:49:36;;;;;;;0.25;0.25;;;4.00;99.90;;;;;;4949437;28;20035;-73
2022/09/20 01:52:31;;;;;;;1.13;0.68;;;4.00;99.90;;;;;;4950456;28;20051;-74
2022/09/20 01:55:15;;;;;;;0.85;0.85;;;3.90;99.90;;;;;;4954002;29;20049;-73
2022/09/20 01:57:55;;;;;;;0.30;0.30;;;3.90;99.90;;;;;;4954148;28;20436;-73
2022/09/20 02:00:42;;;;;;;0.55;0.55;;;3.90;99.90;;;;;;4969475;28;20155;-73
2022/09/20 02:03:16;;;;;;;4.43;1.13;;;3.90;99.90;;;;;;4968850;28;20038;-73
2022/09/20 02:05:57;;;;;;;0.50;0.50;;;4.30;99.90;;;;;;4954214;28;20022;-75
2022/09/20 02:08:23;;;;;;;0.60;0.60;;;3.90;99.90;;;;;;4954216;29;20024;-73
2022/09/20 02:10:48;;;;;;;0.43;0.43;;;4.20;99.90;;;;;;4954672;28;20035;-75
2022/09/20 02:13:28;;;;;;;0.73;0.60;;;4.10;99.90;;;;;;4955699;29;20455;-76
2022/09/20 02:16:17;;;;;;;0.55;0.55;;;3.90;99.90;;;;;;4954058;29;20031;-74
2022/09/20 02:19:02;;;;;;;0.63;0.63;;;3.80;99.90;;;;;;4953946;29;20507;-74
2022/09/20 02:21:40;;;;;;;0.40;0.40;;;3.80;99.90;;;;;;4968898;28;20086;-75
2022/09/20 02:24:21;;;;;;;2.28;0.50;;;4.00;99.90;;;;;;4969143;28;20094;-73
2022/09/20 02:26:56;;;;;;;4.95;1.02;;;;;;;;;;4953964;29;20083;-76
2022/09/20 02:29:41;;;;;;;0.70;0.30;;;3.70;99.90;;;;;;4954043;28;20063;-75
2022/09/20 02:32:34;;;;;;;1.25;0.73;;;3.70;99.90;;;;;;4969282;28;20028;-74
2022/09/20 02:35:18;;;;;;;0.30;0.30;;;3.90;99.90;;;;;;4969240;28;20178;-75
2022/09/20 02:38:10;;;;;;;0.40;0.40;;;4.00;99.90;;;;;;4954070;28;20504;-74
2022/09/20 02:41:04;;;;;;;2.58;1.08;;;3.90;99.90;;;;;;4969537;28;20402;-74
2022/09/20 02:43:50;;;;;;;0.32;0.32;;;3.70;99.90;;;;;;4954154;28;20024;-74
2022/09/20 02:46:29;;;;;;;0.82;0.80;;;3.70;99.90;;;;;;4953965;28;20275;-75
2022/09/20 02:49:10;;;;;;;0.63;0.63;;;3.80;99.90;;;;;;4968699;28;20032;-74
2022/09/20 02:51:55;;;;;;;0.57;0.57;;;3.60;99.90;;;;;;4953637;29;20114;-73
2022/09/20 02:54:28;;;;;;;0.43;0.43;;;3.70;99.90;;;;;;4953379;28;20120;-76
2022/09/20 02:57:16;;;;;;;0.30;0.30;;;3.60;99.90;;;;;;4967833;28;20513;-75
2022/09/20 02:59:53;;;;;;;3.28;1.67;;;3.60;99.90;;;;;;4968159;28;20046;-74
2022/09/20 03:02:31;;;;;;;0.65;0.65;;;3.50;99.90;;;;;;4952706;28;20395;-74
2022/09/20 03:05:43;;;;;;;5.05;0.68;;;3.50;99.90;;;;;;4953230;29;20036;-73
2022/09/20 03:08:18;;;;;;;0.73;0.70;;;3.50;99.90;;;;;;4928878;28;20038;-73
2022/09/20 03:11:05;;;;;;;3.50;0.60;;;3.40;99.90;;;;;;4954076;28;20032;-74
2022/09/20 03:14:02;;;;;;;0.45;0.45;;;3.40;99.90;;;;;;4953706;28;20562;-73
2022/09/20 03:16:54;;;;;;;0.60;0.60;;;3.40;99.90;;;;;;4952773;28;20031;-73
2022/09/20 03:19:44;;;;;;;1.45;0.75;;;3.90;99.90;;;;;;4944865;28;20057;-74
2022/09/20 03:22:13;;;;;;;2.63;1.20;;;3.40;99.90;;;;;;4954308;28;20055;-74
2022/09/20 03:24:45;;;;;;;1.20;0.43;;;3.40;99.90;;;;;;4953024;29;20019;-74
2022/09/20 03:27:18;;;;;;;1.05;0.38;;;3.40;99.90;;;;;;4953907;28;20322;-73
2022/09/20 03:29:58;;;;;;;1.35;0.93;;;3.50;99.90;;;;;;4953349;29;20535;-75
2022/09/20 03:32:31;;;;;;;;;;;3.30;99.90;;;;;;4954504;28;20039;-75
2022/09/20 03:35:26;;;;;;;0.65;0.65;;;3.40;99.90;;;;;;4953507;29;19956;-76
2022/09/20 03:37:54;;;;;;;0.30;0.30;;;3.30;99.90;;;;;;4952131;29;20040;-73
2022/09/20 03:41:06;;;;;;;0.93;0.40;;;3.30;99.90;;;;;;4953889;29;20102;-73
2022/09/20 03:44:04;;;;;;;2.00;1.23;;;1.10;99.90;;;;;;4931663;29;20035;-73
2022/09/20 03:46:45;;;;;;;1.05;0.90;;;3.40;99.90;;;;;;4931770;29;20039;-73
2022/09/20 03:49:33;;;;;;;3.03;1.27;;;3.30;99.90;;;;;;4951619;28;20091;-72
2022/09/20 03:52:18;;;;;;;3.45;0.88;;;3.30;99.90;;;;;;4954641;28;20059;-74
2022/09/20 03:55:14;;;;;;;1.98;0.50;;;3.40;99.90;;;;;;4955430;28;20473;-73
2022/09/20 03:57:51;;;;;;;2.00;1.33;;;3.40;99.90;;;;;;4946834;28;20480;-73
2022/09/20 04:00:22;;;;;;;0.30;0.30;;;3.40;99.90;;;;;;4970940;28;20595;-73
2022/09/20 04:03:09;;;;;;;0.57;0.40;;;3.40;99.90;;;;;;4956387;29;20031;-73
2022/09/20 04:06:05;;;;;;;0.32;0.32;;;3.30;99.90;;;;;;4957121;29;20090;-73
2022/09/20 04:09:19;;;;;;;1.27;1.17;;;3.20;99.90;;;;;;4956537;28;20042;-73
2022/09/20 04:12:09;;;;;;;0.32;0.32;;;3.20;99.90;;;;;;4956523;29;20062;-73
2022/09/20 04:15:05;;;;;;;0.40;0.40;;;3.20;99.90;;;;;;4971488;28;20027;-73
2022/09/20 04:17:48;;;;;;;0.80;0.40;;;3.20;99.90;;;;;;4955885;29;20133;-73
2022/09/20 04:20:27;;;;;;;2.45;0.63;;;3.20;99.90;;;;;;4969774;28;20407;-73
2022/09/20 04:22:58;;;;;;;1.27;1.17;;;3.70;99.90;;;;;;4971346;28;20528;-73
2022/09/20 04:25:47;;;;;;;1.52;0.80;;;3.20;99.90;;;;;;4970556;28;20042;-72
2022/09/20 04:28:16;;;;;;;;;;;3.20;99.90;;;;;;4971732;28;20109;-73
2022/09/20 04:30:45;;;;;;;0.43;0.43;;;3.10;99.90;;;;;;4956601;29;19913;-73
2022/09/20 04:33:29;;;;;;;0.95;0.90;;;3.00;99.90;;;;;;4956116;29;20563;-73
2022/09/20 04:36:28;;;;;;;0.82;0.75;;;3.00;99.90;;;;;;4956188;28;20034;-73
2022/09/20 04:39:11;;;;;;;1.13;0.65;;;3.00;99.90;;;;;;4956212;28;20066;-73
2022/09/20 04:42:15;;;;;;;1.55;0.82;;;3.00;99.90;;;;;;4955609;28;20027;-73
2022/09/20 04:45:09;;;;;;;0.40;0.40;;;3.10;99.90;;;;;;4954506;28;20079;-73
2022/09/20 04:48:07;;;;;;;0.63;0.63;;;3.00;99.90;;;;;;4970031;28;20062;-73
2022/09/20 04:50:52;;;;;;;0.60;0.60;;;3.00;99.90;;;;;;4955469;28;20019;-76
2022/09/20 04:53:27;;;;;;;1.48;0.43;;;3.30;99.90;;;;;;4955637;29;20024;-74
2022/09/20 04:56:20;;;;;;;0.60;0.60;;;2.90;99.90;;;;;;4958107;28;20166;-76
2022/09/20 04:59:09;;;;;;;0.50;0.50;;;2.90;99.90;;;;;;4951344;28;20043;-73
2022/09/20 05:02:06;;;;;;;0.68;0.68;;;2.90;99.90;;;;;;4972800;28;20023;-73
2022/09/20 05:04:49;;;;;;;0.73;0.50;;;2.90;99.90;;;;;;4960528;29;20082;-73
2022/09/20 05:07:40;;;;;;;0.40;0.40;;;2.80;99.90;;;;;;4960647;28;20043;-73
2022/09/20 05:10:39;;;;;;;1.02;0.75;;;2.90;99.90;;;;;;4957676;29;20027;-72
2022/09/20 05:13:20;;;;;;;1.10;0.95;;;2.80;99.90;;;;;;4956095;28;20047;-73
2022/09/20 05:16:17;;;;;;;0.88;0.88;;;2.80;99.90;;;;;;4956560;28;20024;-76
2022/09/20 05:18:51;;;;;;;1.02;0.98;;;2.70;99.90;;;;;;4955495;28;20035;-75
2022/09/20 05:21:17;;;;;;;1.20;0.82;;;3.50;99.90;;;;;;4971001;28;20028;-73
2022/09/20 05:23:58;;;;;;;4.95;1.77;;;;;;;;;;4956621;29;20091;-73
2022/09/20 05:26:43;;;;;;;1.05;0.30;;;3.00;99.90;;;;;;4956042;28;20027;-73
2022/09/20 05:29:11;;;;;;;0.75;0.55;;;2.90;99.90;;;;;;4961200;29;20396;-73
2022/09/20 05:31:41;;;;;;;1.08;0.60;;;2.90;99.90;;;;;;4955492;29;20016;-73
2022/09/20 05:34:21;;;;;;;0.65;0.40;;;2.80;99.90;;;;;;4969079;28;20027;-74
2022/09/20 05:37:06;;;;;;;0.63;0.63;;;2.80;99.90;;;;;;4968382;28;20028;-75
2022/09/20 05:39:46;;;;;;;5.63;0.85;;;3.10;99.90;;;;;;4967635;28;20538;-74
2022/09/20 05:42:45;;;;;;;1.10;1.10;;;3.00;99.90;;;;;;4967851;28;20027;-74
2022/09/20 05:45:32;;;;;;;0.80;0.80;;;3.10;99.90;;;;;;4943023;29;20039;-76
2022/09/20 05:48:17;;;;;;;1.52;1.27;;;3.10;99.90;;;;;;4950685;29;20024;-76
2022/09/20 05:50:59;;;;;;;0.60;0.60;;;3.20;99.90;;;;;;4947886;29;20043;-74
2022/09/20 05:53:55;;;;;;;0.75;0.75;;;3.20;99.90;;;;;;4955677;29;20360;-74
2022/09/20 05:56:26;;;;;;;1.20;1.10;;;3.30;99.90;;;;;;4952092;29;20274;-75
2022/09/20 05:59:11;;;;;;;1.95;1.05;;;3.30;99.90;;;;;;4955093;29;20039;-75
2022/09/20 06:01:56;;;;;;;1.38;0.80;;;3.40;99.90;;;;;;4953755;29;20457;-74
2022/09/20 06:04:28;;;;;;;4.65;1.95;;;3.40;99.90;;;;;;4953146;28;20085;-74
2022/09/20 06:07:26;;;;;;;0.60;0.60;;;3.50;99.90;;;;;;4952754;29;20472;-74
2022/09/20 06:10:04;;;;;;;0.30;0.30;;;3.70;99.90;;;;;;4955589;29;20039;-74
2022/09/20 06:12:52;;;;;;;0.77;0.73;;;3.90;99.90;;;;;;4953891;28;20033;-75
2022/09/20 06:15:43;;;;;;;1.35;0.68;;;3.90;99.90;;;;;;4950472;29;20027;-75
2022/09/20 06:18:15;;;;;;;1.65;1.58;;;4.00;99.90;;;;;;4949977;29;20093;-74
2022/09/20 06:20:55;;;;;;;1.08;0.68;;;4.30;99.90;;;;;;4947714;28;20435;-75
2022/09/20 06:23:21;;;;;;;0.40;0.40;;;4.10;99.90;;;;;;4953816;29;20035;-74
2022/09/20 06:26:02;;;;;;;1.77;0.60;;;4.20;99.90;;;;;;4950804;29;20031;-75
2022/09/20 06:28:40;;;;;;;2.08;0.95;;;4.30;99.90;;;;;;4964672;28;20063;-75
2022/09/20 06:31:08;;;;;;;1.50;1.30;;;4.40;99.90;;;;;;4949719;28;20023;-75
2022/09/20 06:33:43;;;;;;;1.48;0.77;;;4.60;99.90;;;;;;4963968;28;20507;-75
2022/09/20 06:42:05;;;;;;;2.97;1.48;;;5.00;99.90;;;;;;4948659;29;20150;-75
2022/09/20 06:44:31;;;;;;;5.35;1.23;;;5.20;99.90;;;;;;4962288;28;20028;-75
2022/09/20 06:46:56;;;;;;;4.47;1.60;;;5.30;99.90;;;;;;4947965;28;20408;-74
2022/09/20 06:49:23;;;;;;;1.05;1.05;;;2.90;99.90;;;;;;4947525;29;20472;-74
2022/09/20 06:51:49;;;;;;;3.17;2.10;;;5.40;99.90;;;;;;4947266;28;20110;-75
2022/09/20 06:54:20;;;;;;;2.95;1.52;;;5.50;99.90;;;;;;4947491;28;20600;-76
2022/09/20 06:56:48;;;;;;;8.63;3.03;;;5.60;99.90;;;;;;4962017;28;20065;-75
2022/09/20 06:59:14;;;;;;;5.95;2.70;;;5.70;99.90;;;;;;4947585;28;20039;-75
2022/09/20 07:01:40;;;;;;;1.73;1.60;;;5.80;99.90;;;;;;4948054;29;20032;-74
2022/09/20 07:04:08;;;;;;;1.10;0.90;;;6.00;99.90;;;;;;4947825;28;20810;-74
2022/09/20 07:06:34;;;;;;;2.88;1.27;;;6.20;99.90;;;;;;4947165;28;20024;-75
2022/09/20 07:09:00;;;;;;;1.50;1.40;;;6.30;99.90;;;;;;4947744;28;20064;-75
2022/09/20 07:11:26;;;;;;;1.25;0.80;;;6.30;99.90;;;;;;4962685;28;20105;-75
2022/09/20 07:13:54;;;;;;;1.67;1.02;;;6.50;99.90;;;;;;4948496;28;20031;-74
2022/09/20 07:16:20;;;;;;;1.45;1.15;;;6.60;99.90;;;;;;4948498;28;20022;-75
2022/09/20 07:18:47;;;;;;;1.80;1.70;;;6.80;99.90;;;;;;4963176;28;20479;-74
2022/09/20 07:21:17;;;;;;;1.77;1.40;;;7.00;99.90;;;;;;4963377;28;20154;-74
2022/09/20 07:23:47;;;;;;;2.15;1.42;;;7.20;99.90;;;;;;4950361;28;20074;-75
2022/09/20 07:26:21;;;;;;;2.63;1.00;;;7.30;99.90;;;;;;4952516;28;20030;-75
2022/09/20 07:28:48;;;;;;;6.22;1.92;;;7.40;99.90;;;;;;4952369;28;20035;-74
2022/09/20 07:31:16;;;;;;;1.40;1.27;;;7.50;99.90;;;;;;4952095;28;20030;-75
2022/09/20 07:33:42;;;;;;;1.10;1.08;;;7.50;99.90;;;;;;4951373;28;20026;-75
2022/09/20 07:36:10;;;;;;;1.15;1.10;;;7.70;99.90;;;;;;4950891;28;20376;-75
2022/09/20 07:38:36;;;;;;;3.50;1.30;;;7.90;99.90;;;;;;4966464;28;20144;-75
2022/09/20 07:41:02;;;;;;;2.15;1.17;;;8.00;99.90;;;;;;4951841;28;20019;-75
2022/09/20 07:43:29;;;;;;;2.45;2.25;;;8.00;99.90;;;;;;4966601;28;20034;-75
2022/09/20 07:45:57;;;;;;;0.85;0.73;;;8.10;99.90;;;;;;4966289;28;20023;-74
2022/09/20 07:48:35;;;;;;;2.85;1.88;;;8.30;99.90;;;;;;4950941;28;20353;-75
2022/09/20 07:51:05;;;;;;;2.88;0.80;;;8.40;99.90;;;;;;4951633;29;20142;-74
2022/09/20 07:53:33;;;;;;;0.80;0.80;;;;;;;;;;4951466;28;20079;-74
2022/09/20 07:56:09;;;;;;;0.40;0.40;;;8.80;99.90;;;;;;4952009;28;20047;-74
2022/09/20 07:58:35;;;;;;;0.60;0.60;;;8.90;99.90;;;;;;4951834;28;20479;-74
2022/09/20 08:01:04;;;;;;;5.20;0.75;;;9.10;99.90;;;;;;4950433;29;20098;-74
2022/09/20 08:03:31;;;;;;;0.63;0.63;;;9.20;99.90;;;;;;4951007;28;20485;-74
2022/09/20 08:06:08;;;;;;;5.25;0.47;;;9.30;99.90;;;;;;4964990;28;20035;-74
2022/09/20 08:08:39;;;;;;;0.75;0.75;;;9.50;99.90;;;;;;4951156;28;20285;-74
2022/09/20 08:11:08;;;;;;;1.90;0.88;;;9.40;99.90;;;;;;4965971;28;20392;-75
2022/09/20 08:13:38;;;;;;;4.75;0.60;;;9.50;99.90;;;;;;4965797;28;20480;-74
2022/09/20 08:16:06;;;;;;;1.42;1.20;;;9.80;99.90;;;;;;4951340;28;20035;-75
2022/09/20 08:18:33;;;;;;;3.90;0.80;;;9.70;99.90;;;;;;4951144;28;20028;-74
2022/09/20 08:21:07;;;;;;;0.68;0.68;;;9.80;99.90;;;;;;4951163;28;20334;-74
2022/09/20 08:23:37;;;;;;;1.73;0.63;;;9.90;99.90;;;;;;4951261;28;20027;-75
2022/09/20 08:26:05;;;;;;;3.28;2.58;;;10.10;99.90;;;;;;4951258;28;20027;-74
2022/09/20 08:28:32;;;;;;;0.50;0.50;;;10.20;99.90;;;;;;4951013;28;20038;-74
2022/09/20 08:31:33;;;;;;;2.80;1.63;;;10.20;99.90;;;;;;4951639;28;20027;-74
2022/09/20 08:34:02;;;;;;;2.67;1.15;;;10.20;99.90;;;;;;4962087;28;20043;-75
2022/09/20 08:36:29;;;;;;;0.60;0.60;;;10.50;99.90;;;;;;4951188;28;20027;-75
2022/09/20 08:38:55;;;;;;;0.70;0.70;;;11.50;99.90;;;;;;4950665;28;20126;-75
2022/09/20 08:41:31;;;;;;;1.77;0.68;;;12.20;99.90;;;;;;4950470;28;20027;-75
2022/09/20 08:44:10;;;;;;;2.90;0.98;;;12.70;99.90;;;;;;4950682;28;20035;-75
2022/09/20 08:46:42;;;;;;;;;;;13.00;99.90;;;;;;4966162;28;20119;-75
2022/09/20 08:49:14;;;;;;;8.20;2.75;;;12.40;99.90;;;;;;4950991;28;19911;-75
2022/09/20 08:51:41;;;;;;;1.75;0.77;;;12.40;99.90;;;;;;4950856;29;20111;-75
2022/09/20 08:54:15;;;;;;;0.65;0.65;;;12.00;99.90;;;;;;4950850;28;20082;-75
2022/09/20 08:56:41;;;;;;;0.52;0.52;;;11.70;99.90;;;;;;4950548;28;20039;-74
2022/09/20 08:59:16;;;;;;;0.52;0.52;;;11.40;99.90;;;;;;4950834;28;20038;-75
2022/09/20 09:01:42;;;;;;;2.83;1.38;;;11.30;99.90;;;;;;4950342;28;20015;-75
2022/09/20 09:04:15;;;;;;;2.35;0.90;;;11.30;99.90;;;;;;4964945;28;20354;-75
2022/09/20 09:06:42;;;;;;;0.77;0.68;;;11.30;99.90;;;;;;4950891;29;20043;-75
2022/09/20 09:09:18;;;;;;;0.63;0.50;;;11.30;99.90;;;;;;4950314;28;20038;-74
2022/09/20 09:11:44;;;;;;;0.60;0.60;;;11.40;99.90;;;;;;4950221;28;20131;-75
2022/09/20 09:17:16;;;;;;;6.43;1.65;;;11.50;99.90;;;;;;4950442;29;20039;-75
2022/09/20 09:20:03;;;;;;;2.45;0.90;;;11.70;99.90;;;;;;4950378;28;20052;-75
2022/09/20 09:22:34;;;;;;;0.50;0.30;;;10.40;99.90;;;;;;4949635;29;20039;-75
2022/09/20 09:25:23;;;;;;;2.13;0.68;;;12.10;99.90;;;;;;4949734;28;20097;-75
2022/09/20 09:28:09;;;;;;;0.28;0.28;;;13.10;99.90;;;;;;4950279;28;20061;-76
2022/09/20 09:30:40;;;;;;;1.02;0.55;;;12.50;99.90;;;;;;4949645;28;20050;-76
2022/09/20 09:33:22;;;;;;;2.50;1.45;;;12.50;99.90;;;;;;4949845;28;20020;-76
2022/09/20 09:35:55;;;;;;;4.55;0.93;;;12.50;99.90;;;;;;4950212;28;20031;-75
2022/09/20 09:38:28;;;;;;;4.10;1.13;;;12.40;99.90;;;;;;4949601;28;20043;-75
2022/09/20 09:40:58;;;;;;;1.40;1.30;;;12.50;99.90;;;;;;4964301;28;20110;-76
2022/09/20 09:43:30;;;;;;;0.50;0.50;;;12.60;99.90;;;;;;4949732;28;20432;-75
2022/09/20 09:46:23;;;;;;;1.02;1.02;;;12.70;99.90;;;;;;4949647;28;20090;-75
2022/09/20 09:49:21;;;;;;;5.28;0.55;;;12.70;99.90;;;;;;4949900;28;20476;-75
2022/09/20 09:52:13;;;;;;;0.40;0.40;;;12.80;99.90;;;;;;4949672;28;20035;-75
2022/09/20 09:54:50;;;;;;;0.57;0.43;;;12.90;99.90;;;;;;4949199;28;20030;-75
2022/09/20 09:57:52;;;;;;;2.67;1.00;;;13.00;99.90;;;;;;4964448;28;20045;-75
2022/09/20 10:00:23;;;;;;;0.90;0.63;;;13.10;99.90;;;;;;4949389;28;20614;-75
2022/09/20 10:03:37;;;;;;;2.15;0.45;;;13.00;99.90;;;;;;4949531;28;20186;-75
2022/09/20 10:06:30;;;;;;;0.40;0.40;;;13.20;99.90;;;;;;4946306;28;20031;-76
2022/09/20 10:09:13;;;;;;;0.40;0.40;;;13.10;99.90;;;;;;4946189;28;20035;-75
2022/09/20 10:12:08;;;;;;;10.27;0.47;;;13.30;99.90;;;;;;4948542;29;20618;-75
2022/09/20 10:14:50;;;;;;;0.70;0.60;;;13.50;99.90;;;;;;4949294;28;20039;-75
2022/09/20 10:17:34;;;;;;;1.00;0.85;;;13.60;99.90;;;;;;4949485;29;20054;-76
2022/09/20 10:20:09;;;;;;;1.35;0.82;;;13.60;99.90;;;;;;4948399;28;20043;-74
2022/09/20 10:22:49;;;;;;;0.30;0.30;;;13.90;99.90;;;;;;4951056;29;20037;-75
2022/09/20 10:25:24;;;;;;;3.20;0.50;;;12.60;99.90;;;;;;4952189;29;20046;-76
2022/09/20 10:28:05;;;;;;;0.57;0.50;;;14.20;99.90;;;;;;4949429;29;20031;-75
2022/09/20 10:31:03;;;;;;;5.28;0.68;;;14.10;99.90;;;;;;4949428;28;20026;-75
2022/09/20 10:34:19;;;;;;;8.98;0.90;;;13.90;99.90;;;;;;4953703;29;20031;-75
2022/09/20 10:36:57;;;;;;;1.90;0.75;;;14.10;99.90;;;;;;4907341;29;20043;-75
2022/09/20 10:39:40;;;;;;;0.30;0.30;;;14.30;99.90;;;;;;4946033;28;20051;-75
2022/09/20 10:45:50;;;;;;;0.63;0.63;;;14.60;98.50;;;;;;4947703;29;20537;-74
2022/09/20 10:48:51;;;;;;;0.70;0.25;;;14.60;98.40;;;;;;4955372;28;20023;-75
2022/09/20 10:51:36;;;;;;;0.70;0.70;;;14.70;97.10;;;;;;4955152;29;20050;-74
2022/09/20 10:54:26;;;;;;;0.50;0.50;;;15.10;99.20;;;;;;4952503;28;20053;-74
2022/09/20 10:57:17;;;;;;;0.28;0.28;;;15.30;99.90;;;;;;4951834;28;20052;-74
2022/09/20 11:00:15;;;;;;;1.77;0.80;;;15.30;96.90;;;;;;4950272;28;20047;-74
2022/09/20 11:02:50;;;;;;;0.50;0.50;;;15.20;95.80;;;;;;4948190;29;20044;-74
2022/09/20 11:05:53;;;;;;;3.40;0.40;;;15.00;94.70;;;;;;4948394;28;20038;-75
2022/09/20 11:08:24;;;;;;;0.40;0.40;;;14.80;95.10;;;;;;4954093;28;20039;-75
2022/09/20 11:10:54;;;;;;;0.30;0.30;;;14.70;97.60;;;;;;4947996;28;20046;-75
2022/09/20 11:13:29;;;;;;;0.30;0.30;;;14.40;96.90;;;;;;4948290;28;20023;-77
2022/09/20 11:16:04;;;;;;;5.22;0.82;;;15.20;95.40;;;;;;4948470;28;20024;-77
2022/09/20 11:18:42;;;;;;;0.40;0.40;;;15.50;97.50;;;;;;4932848;28;20052;-76
2022/09/20 11:21:18;;;;;;;0.20;0.20;;;15.40;93.90;;;;;;4943605;29;20441;-76
2022/09/20 11:24:05;;;;;;;11.50;0.63;;;15.00;91.80;;;;;;4929404;29;20059;-76
2022/09/20 11:26:38;;;;;;;0.90;0.88;;;15.00;97.50;;;;;;4931401;29;20499;-76
2022/09/20 11:29:38;;;;;;;1.08;0.90;;;14.80;92.20;;;;;;4929502;29;20042;-76
2022/09/20 11:32:07;;;;;;;0.13;0.13;;;14.90;93.50;;;;;;4929447;29;20535;-76
2022/09/20 11:34:47;;;;;;;0.25;0.17;;;15.20;95.80;;;;;;4929155;29;20036;-76
2022/09/20 11:37:14;;;;;;;0.13;0.13;;;15.50;77.80;;;;;;4929431;29;20019;-77
2022/09/20 11:39:48;;;;;;;0.30;0.30;;;15.70;68.80;;;;;;4946688;29;20036;-76
2022/09/20 11:42:19;;;;;;;0.63;0.30;;;16.00;74.10;;;;;;4948214;29;20028;-76
2022/09/20 11:44:45;;;;;;;0.35;0.35;;;15.80;79.60;;;;;;4948074;28;20027;-76
2022/09/20 11:47:17;;;;;;;0.13;0.13;;;15.30;70.20;;;;;;4962714;28;20030;-76
2022/09/20 11:50:26;;;;;;;0.10;0.10;;;16.40;77.90;;;;;;4947081;28;20452;-75
2022/09/20 11:52:55;;;;;;;;;;;17.20;67.00;;;;;;4947782;28;20031;-75
2022/09/20 11:55:43;;;;;;;0.67;0.67;;;19.10;66.40;;;;;;4948046;29;19918;-75
2022/09/20 11:58:11;;;;;;;0.45;0.45;;;17.80;62.90;;;;;;4948370;29;20091;-75
2022/09/20 12:00:40;;;;;;;0.30;0.20;;;17.20;72.00;;;;;;4948890;28;20318;-75
2022/09/20 12:03:29;;;;;;;6.63;0.20;;;16.70;63.40;;;;;;4947666;29;20023;-75
2022/09/20 12:06:07;;;;;;;0.10;0.10;;;17.00;65.40;;;;;;4948002;29;20082;-75
2022/09/20 12:08:36;;;;;;;1.58;1.05;;;16.40;74.50;;;;;;4947895;28;20027;-75
2022/09/20 12:11:09;;;;;;;0.10;0.10;;;17.10;66.30;;;;;;4950993;28;20043;-75
2022/09/20 12:13:41;;;;;;;0.15;0.15;;;17.10;63.30;;;;;;4951208;28;20397;-76
2022/09/20 12:16:16;;;;;;;0.17;0.17;;;17.10;63.30;;;;;;4951109;29;20510;-75
2022/09/20 12:19:00;;;;;;;0.22;0.20;;;17.80;64.60;;;;;;4951135;28;20066;-75
2022/09/20 12:21:27;;;;;;;0.10;0.10;;;17.80;71.70;;;;;;4951133;29;20042;-75
2022/09/20 12:23:55;;;;;;;0.47;0.28;;;18.30;62.00;;;;;;4950739;29;20109;-75
2022/09/20 12:26:21;;;;;;;0.52;0.50;;;18.60;59.60;;;;;;4950990;29;20027;-75
2022/09/20 12:28:54;;;;;;;2.67;0.88;;;19.30;58.60;;;;;;4951271;29;20106;-75
2022/09/20 12:31:30;;;;;;;1.17;0.20;;;20.70;56.40;;;;;;4950469;29;20499;-74
2022/09/20 12:34:22;;;;;;;0.10;0.10;;;21.40;52.20;;;;;;4950106;28;20034;-75
2022/09/20 12:36:53;;;;;;;2.38;0.47;;;21.20;52.50;;;;;;4948664;29;20038;-76
2022/09/20 12:39:32;;;;;;;0.00;0.00;;;21.50;51.70;;;;;;4949141;28;20500;-76
2022/09/20 12:42:01;;;;;;;0.25;0.10;;;21.70;49.60;;;;;;4949757;28;20109;-76
2022/09/20 12:44:36;;;;;;;3.38;0.20;;;21.70;49.20;;;;;;4948566;29;20027;-76
2022/09/20 12:47:11;;;;;;;2.38;0.40;;;22.10;48.30;;;;;;4946530;28;20488;-76
2022/09/20 12:52:59;;;;;;;0.32;0.30;;;23.30;45.70;;;;;;4948312;29;20267;-77
2022/09/20 12:55:30;;;;;;;0.30;0.13;;;23.70;45.20;;;;;;4948067;28;20500;-77
2022/09/20 12:58:02;;;;;;;0.10;0.10;;;23.40;43.70;;;;;;4948698;28;20507;-77
2022/09/20 13:00:45;;;;;;;0.05;0.05;;;23.60;45.60;;;;;;4949177;29;20050;-76
2022/09/20 13:03:22;;;;;;;0.00;0.00;;;23.60;44.10;;;;;;4948883;28;20484;-77
2022/09/20 13:06:10;;;;;;;0.00;0.00;;;23.80;43.20;;;;;;4950069;28;20031;-76
2022/09/20 13:08:47;;;;;;;0.20;0.20;;;23.10;44.30;;;;;;4949121;28;20094;-76
2022/09/20 13:11:26;;;;;;;0.20;0.10;;;22.40;45.00;;;;;;4950387;28;20023;-77
2022/09/20 13:14:08;;;;;;;0.03;0.03;;;21.80;46.30;;;;;;4950192;28;20023;-76
2022/09/20 13:16:36;;;;;;;0.25;0.17;;;21.60;45.90;;;;;;4950022;28;20286;-77
2022/09/20 13:19:05;;;;;;;0.25;0.10;;;22.70;48.50;;;;;;4949788;28;20139;-76
2022/09/20 13:21:38;;;;;;;0.20;0.20;;;22.80;42.90;;;;;;4948579;28;20031;-76
2022/09/20 13:24:05;;;;;;;0.82;0.05;;;23.80;42.00;;;;;;4949649;28;20042;-76
2022/09/20 13:26:43;;;;;;;0.10;0.10;;;22.80;43.00;;;;;;4949843;28;20357;-77
2022/09/20 13:29:36;;;;;;;0.55;0.00;;;20.40;45.80;;;;;;4949706;28;20023;-76
2022/09/20 13:32:20;;;;;;;0.13;0.13;;;20.10;48.50;;;;;;4950227;28;20023;-76
2022/09/20 13:35:12;;;;;;;0.65;0.35;;;18.70;52.20;;;;;;4949641;28;20031;-74
2022/09/20 13:37:45;;;;;;;0.20;0.20;;;17.80;54.10;;;;;;4949580;28;20025;-75
2022/09/20 13:40:23;;;;;;;1.20;1.08;;;17.10;54.60;;;;;;4949246;28;20031;-77
2022/09/20 13:42:51;;;;;;;0.05;0.00;;;17.30;53.40;;;;;;4949568;28;20039;-75
2022/09/20 13:45:19;;;;;;;1.38;0.13;;;17.40;53.80;;;;;;4950151;28;20448;-74
2022/09/20 13:47:50;;;;;;;0.10;0.10;;;16.80;55.20;;;;;;4949838;28;20548;-74
2022/09/20 13:50:19;;;;;;;0.00;0.00;;;16.50;56.60;;;;;;4950230;28;20484;-74
2022/09/20 13:52:47;;;;;;;0.03;0.03;;;16.70;57.30;;;;;;4949544;28;20023;-74
2022/09/20 13:55:42;;;;;;;0.10;0.10;;;17.00;54.20;;;;;;4950730;28;20061;-76
2022/09/20 13:58:30;;;;;;;0.20;0.20;;;18.80;51.30;;;;;;4948939;28;20047;-75
2022/09/20 14:01:05;;;;;;;0.22;0.20;;;19.00;51.30;;;;;;4949303;28;20649;-76
2022/09/20 14:03:35;;;;;;;0.20;0.20;;;19.30;50.90;;;;;;4948972;28;20070;-74
2022/09/20 14:06:03;;;;;;;0.10;0.10;;;19.50;49.70;;;;;;4949368;28;20046;-77
2022/09/20 14:08:41;;;;;;;8.80;1.65;;;20.00;50.00;;;;;;4948817;28;20465;-74